sensor_id;sensor_type;location;lat;lon;timestamp;temperature;humidity
72919;SHT30;68407;55.694;26.994;2023-10-08T00:01:19;4.9;81.3
72919;SHT30;68407;55.694;26.994;2023-10-08T00:05:42;4.7;82.5
72919;SHT30;68407;55.694;26.994;2023-10-08T00:11:10;4.6;83.2
72919;SHT30;68407;55.694;26.994;2023-10-08T00:16:18;4.4;83.7
72919;SHT30;68407;55.694;26.994;2023-10-08T00:21:10;4.2;84
72919;SHT30;68407;55.694;26.994;2023-10-08T00:26:06;4.2;84.3
72919;SHT30;68407;55.694;26.994;2023-10-08T00:30:44;4.1;84.4
72919;SHT30;68407;55.694;26.994;2023-10-08T00:35:36;4.1;84.8
72919;SHT30;68407;55.694;26.994;2023-10-08T00:41:18;4;84.8
72919;SHT30;68407;55.694;26.994;2023-10-08T00:45:58;4.1;84.6
72919;SHT30;68407;55.694;26.994;2023-10-08T00:50:44;4.2;84.6
72919;SHT30;68407;55.694;26.994;2023-10-08T00:55:40;4.1;84.7
72919;SHT30;68407;55.694;26.994;2023-10-08T01:01:10;3.9;85.5
72919;SHT30;68407;55.694;26.994;2023-10-08T01:06:18;4;86.3
72919;SHT30;68407;55.694;26.994;2023-10-08T01:11:16;4;86.7
72919;SHT30;68407;55.694;26.994;2023-10-08T01:16:06;4.1;86.7
72919;SHT30;68407;55.694;26.994;2023-10-08T01:20:44;4.2;86.4
72919;SHT30;68407;55.694;26.994;2023-10-08T01:25:58;4.2;86.3
72919;SHT30;68407;55.694;26.994;2023-10-08T01:31:18;4.3;85.8
72919;SHT30;68407;55.694;26.994;2023-10-08T01:36:04;4.3;85.4
72919;SHT30;68407;55.694;26.994;2023-10-08T01:40:44;4.4;84.9
72919;SHT30;68407;55.694;26.994;2023-10-08T01:45:38;4.4;84.5
72919;SHT30;68407;55.694;26.994;2023-10-08T01:51:10;4.4;84.6
72919;SHT30;68407;55.694;26.994;2023-10-08T01:56:18;4.2;85.3
72919;SHT30;68407;55.694;26.994;2023-10-08T02:00:49;4.1;86
72919;SHT30;68407;55.694;26.994;2023-10-08T02:06:06;4.1;86
72919;SHT30;68407;55.694;26.994;2023-10-08T02:10:32;4;85.9
72919;SHT30;68407;55.694;26.994;2023-10-08T02:15:58;4;85.6
72919;SHT30;68407;55.694;26.994;2023-10-08T02:21:16;4;85.6
72919;SHT30;68407;55.694;26.994;2023-10-08T02:25:32;4;85.3
72919;SHT30;68407;55.694;26.994;2023-10-08T02:30:38;4;85
72919;SHT30;68407;55.694;26.994;2023-10-08T02:35:32;4;85.1
72919;SHT30;68407;55.694;26.994;2023-10-08T02:41:15;4;85.1
72919;SHT30;68407;55.694;26.994;2023-10-08T02:46:18;4;84.9
72919;SHT30;68407;55.694;26.994;2023-10-08T02:51:10;4;85
72919;SHT30;68407;55.694;26.994;2023-10-08T02:56:06;4;85.1
72919;SHT30;68407;55.694;26.994;2023-10-08T03:00:32;4;85.2
72919;SHT30;68407;55.694;26.994;2023-10-08T03:05:32;4;85
72919;SHT30;68407;55.694;26.994;2023-10-08T03:11:09;4.1;84.7
72919;SHT30;68407;55.694;26.994;2023-10-08T03:16:11;4;84
72919;SHT30;68407;55.694;26.994;2023-10-08T03:20:32;3.9;83.6
72919;SHT30;68407;55.694;26.994;2023-10-08T03:25:32;3.8;83.7
72919;SHT30;68407;55.694;26.994;2023-10-08T03:31:10;3.7;83.5
72919;SHT30;68407;55.694;26.994;2023-10-08T03:36:16;3.7;83.4
72919;SHT30;68407;55.694;26.994;2023-10-08T03:41:08;3.7;83.6
72919;SHT30;68407;55.694;26.994;2023-10-08T03:46:00;3.6;84.2
72919;SHT30;68407;55.694;26.994;2023-10-08T03:50:44;3.5;85.5
72919;SHT30;68407;55.694;26.994;2023-10-08T03:55:52;3.3;86.3
72919;SHT30;68407;55.694;26.994;2023-10-08T04:01:18;3.1;87
72919;SHT30;68407;55.694;26.994;2023-10-08T04:06:08;3.1;87.5
72919;SHT30;68407;55.694;26.994;2023-10-08T04:10:36;3.3;87.7
72919;SHT30;68407;55.694;26.994;2023-10-08T04:15:50;3.3;87.5
72919;SHT30;68407;55.694;26.994;2023-10-08T04:21:00;3.4;87.5
72919;SHT30;68407;55.694;26.994;2023-10-08T04:26:20;3.6;87.2
72919;SHT30;68407;55.694;26.994;2023-10-08T04:31:12;3.7;87
72919;SHT30;68407;55.694;26.994;2023-10-08T04:35:41;3.6;86.9
72919;SHT30;68407;55.694;26.994;2023-10-08T04:40:36;3.4;87.1
72919;SHT30;68407;55.694;26.994;2023-10-08T04:46:12;3.3;87.5
72919;SHT30;68407;55.694;26.994;2023-10-08T04:51:20;3.3;87.8
72919;SHT30;68407;55.694;26.994;2023-10-08T04:55:32;3.2;87.8
72919;SHT30;68407;55.694;26.994;2023-10-08T05:00:32;3.2;88
72919;SHT30;68407;55.694;26.994;2023-10-08T05:05:42;3.2;88
72919;SHT30;68407;55.694;26.994;2023-10-08T05:11:10;3.3;87.9
72919;SHT30;68407;55.694;26.994;2023-10-08T05:16:18;3.4;87.7
72919;SHT30;68407;55.694;26.994;2023-10-08T05:21:12;3.4;87.6
72919;SHT30;68407;55.694;26.994;2023-10-08T05:26:07;3.4;87.6
72919;SHT30;68407;55.694;26.994;2023-10-08T05:30:32;3.5;87.4
72919;SHT30;68407;55.694;26.994;2023-10-08T05:35:58;3.5;87.1
72919;SHT30;68407;55.694;26.994;2023-10-08T05:41:19;3.6;87.3
72919;SHT30;68407;55.694;26.994;2023-10-08T05:45:59;3.7;87.4
72919;SHT30;68407;55.694;26.994;2023-10-08T05:51:18;3.8;87.1
72919;SHT30;68407;55.694;26.994;2023-10-08T05:55:48;3.8;87.1
72919;SHT30;68407;55.694;26.994;2023-10-08T06:01:08;3.8;87.1
72919;SHT30;68407;55.694;26.994;2023-10-08T06:06:19;3.8;87
72919;SHT30;68407;55.694;26.994;2023-10-08T06:11:19;3.9;87.1
72919;SHT30;68407;55.694;26.994;2023-10-08T06:16:05;4;86.8
72919;SHT30;68407;55.694;26.994;2023-10-08T06:21:19;4.1;86.6
72919;SHT30;68407;55.694;26.994;2023-10-08T06:26:13;4.3;86.5
72919;SHT30;68407;55.694;26.994;2023-10-08T06:31:07;4.2;86.5
72919;SHT30;68407;55.694;26.994;2023-10-08T06:35:31;4;86.7
72919;SHT30;68407;55.694;26.994;2023-10-08T06:40:35;3.7;87.2
72919;SHT30;68407;55.694;26.994;2023-10-08T06:45:41;3.7;86.8
72919;SHT30;68407;55.694;26.994;2023-10-08T06:50:47;3.3;86.7
72919;SHT30;68407;55.694;26.994;2023-10-08T06:56:19;3;86.7
72919;SHT30;68407;55.694;26.994;2023-10-08T07:01:19;3;86.8
72919;SHT30;68407;55.694;26.994;2023-10-08T07:06:05;3.2;86.7
72919;SHT30;68407;55.694;26.994;2023-10-08T07:11:19;3.3;86.5
72919;SHT30;68407;55.694;26.994;2023-10-08T07:15:59;3.3;87.2
72919;SHT30;68407;55.694;26.994;2023-10-08T07:20:33;3.4;87.5
72919;SHT30;68407;55.694;26.994;2023-10-08T07:25:35;3.4;87.6
72919;SHT30;68407;55.694;26.994;2023-10-08T07:30:31;3.5;87.6
72919;SHT30;68407;55.694;26.994;2023-10-08T07:36:21;3.8;87.7
72919;SHT30;68407;55.694;26.994;2023-10-08T07:41:19;4.2;87.5
72919;SHT30;68407;55.694;26.994;2023-10-08T07:46:19;4.5;86.8
72919;SHT30;68407;55.694;26.994;2023-10-08T07:51:19;4.6;86.8
72919;SHT30;68407;55.694;26.994;2023-10-08T07:56:07;4.8;86.3
72919;SHT30;68407;55.694;26.994;2023-10-08T08:01:19;4.7;86.4
72919;SHT30;68407;55.694;26.994;2023-10-08T08:05:59;4.7;86.6
72919;SHT30;68407;55.694;26.994;2023-10-08T08:11:05;4.9;86.3
72919;SHT30;68407;55.694;26.994;2023-10-08T08:15:43;5;86.5
72919;SHT30;68407;55.694;26.994;2023-10-08T08:20:39;5.1;85.6
72919;SHT30;68407;55.694;26.994;2023-10-08T08:25:35;5.2;85.6
72919;SHT30;68407;55.694;26.994;2023-10-08T08:30:31;5.3;84.6
72919;SHT30;68407;55.694;26.994;2023-10-08T08:36:17;5.1;84.2
72919;SHT30;68407;55.694;26.994;2023-10-08T08:41:19;5;85.5
72919;SHT30;68407;55.694;26.994;2023-10-08T08:46:03;5;84.9
72919;SHT30;68407;55.694;26.994;2023-10-08T08:51:07;5;85
72919;SHT30;68407;55.694;26.994;2023-10-08T08:55:33;5.1;84.3
72919;SHT30;68407;55.694;26.994;2023-10-08T09:01:07;5.3;84
72919;SHT30;68407;55.694;26.994;2023-10-08T09:05:43;5.5;83.4
72919;SHT30;68407;55.694;26.994;2023-10-08T09:10:35;5.5;82.9
72919;SHT30;68407;55.694;26.994;2023-10-08T09:15:33;5.7;82.5
72919;SHT30;68407;55.694;26.994;2023-10-08T09:21:06;5.9;81.6
72919;SHT30;68407;55.694;26.994;2023-10-08T09:26:22;5.9;81.6
72919;SHT30;68407;55.694;26.994;2023-10-08T09:31:19;6.1;81.2
72919;SHT30;68407;55.694;26.994;2023-10-08T09:36:07;6.1;80.3
72919;SHT30;68407;55.694;26.994;2023-10-08T09:41:21;6;80
72919;SHT30;68407;55.694;26.994;2023-10-08T09:46:00;5.9;80.8
72919;SHT30;68407;55.694;26.994;2023-10-08T09:51:15;5.9;80.5
72919;SHT30;68407;55.694;26.994;2023-10-08T09:55:31;6.1;79.8
72919;SHT30;68407;55.694;26.994;2023-10-08T10:00:39;6.1;80.5
72919;SHT30;68407;55.694;26.994;2023-10-08T10:05:33;6;80.5
72919;SHT30;68407;55.694;26.994;2023-10-08T10:10:57;6;80.1
72919;SHT30;68407;55.694;26.994;2023-10-08T10:16:20;6.1;78.6
72919;SHT30;68407;55.694;26.994;2023-10-08T10:21:34;6.1;77.7
72919;SHT30;68407;55.694;26.994;2023-10-08T10:26:21;6.2;76.4
72919;SHT30;68407;55.694;26.994;2023-10-08T10:31:21;6.4;75.7
72919;SHT30;68407;55.694;26.994;2023-10-08T10:35:33;6.3;74.7
72919;SHT30;68407;55.694;26.994;2023-10-08T10:41:21;6;74
72919;SHT30;68407;55.694;26.994;2023-10-08T10:45:43;5.7;74.7
72919;SHT30;68407;55.694;26.994;2023-10-08T10:50:33;5.4;75.4
72919;SHT30;68407;55.694;26.994;2023-10-08T10:55:59;5.4;75.9
72919;SHT30;68407;55.694;26.994;2023-10-08T11:00:51;5.4;76.2
72919;SHT30;68407;55.694;26.994;2023-10-08T11:06:17;5.3;75.8
72919;SHT30;68407;55.694;26.994;2023-10-08T11:10:59;5.5;75.6
72919;SHT30;68407;55.694;26.994;2023-10-08T11:16:22;5.9;75
72919;SHT30;68407;55.694;26.994;2023-10-08T11:21:05;6;74.4
72919;SHT30;68407;55.694;26.994;2023-10-08T11:25:59;6.2;74.5
72919;SHT30;68407;55.694;26.994;2023-10-08T11:31:19;6.2;74.3
72919;SHT30;68407;55.694;26.994;2023-10-08T11:35:37;6.3;74.8
72919;SHT30;68407;55.694;26.994;2023-10-08T11:40:31;6.1;75.1
72919;SHT30;68407;55.694;26.994;2023-10-08T11:46:20;6.1;75.9
72919;SHT30;68407;55.694;26.994;2023-10-08T11:50:33;6.3;75.6
72919;SHT30;68407;55.694;26.994;2023-10-08T11:55:57;6.5;75.4
72919;SHT30;68407;55.694;26.994;2023-10-08T12:00:47;6.8;74.7
72919;SHT30;68407;55.694;26.994;2023-10-08T12:06:21;6.6;74.3
72919;SHT30;68407;55.694;26.994;2023-10-08T12:11:21;6.4;75.6
72919;SHT30;68407;55.694;26.994;2023-10-08T12:15:33;6.2;76
72919;SHT30;68407;55.694;26.994;2023-10-08T12:21:21;6.1;76.5
72919;SHT30;68407;55.694;26.994;2023-10-08T12:25:31;6.4;76.3
72919;SHT30;68407;55.694;26.994;2023-10-08T12:30:57;6.5;75.4
72919;SHT30;68407;55.694;26.994;2023-10-08T12:35:57;6.7;75.5
72919;SHT30;68407;55.694;26.994;2023-10-08T12:40:51;6.8;74.9
72919;SHT30;68407;55.694;26.994;2023-10-08T12:45:35;6.8;75.2
72919;SHT30;68407;55.694;26.994;2023-10-08T12:50:57;6.7;74.9
72919;SHT30;68407;55.694;26.994;2023-10-08T12:56:21;6.7;75.3
72919;SHT30;68407;55.694;26.994;2023-10-08T13:01:21;6.6;75.6
72919;SHT30;68407;55.694;26.994;2023-10-08T13:05:33;6.5;76.2
72919;SHT30;68407;55.694;26.994;2023-10-08T13:11:17;6.4;77.4
72919;SHT30;68407;55.694;26.994;2023-10-08T13:15:33;6.2;78.6
72919;SHT30;68407;55.694;26.994;2023-10-08T13:20:53;6.1;79.1
72919;SHT30;68407;55.694;26.994;2023-10-08T13:25:57;6;79.7
72919;SHT30;68407;55.694;26.994;2023-10-08T13:30:43;5.9;80.4
72919;SHT30;68407;55.694;26.994;2023-10-08T13:35:57;5.8;81
72919;SHT30;68407;55.694;26.994;2023-10-08T13:40:57;5.8;81.2
72919;SHT30;68407;55.694;26.994;2023-10-08T13:46:17;5.8;81
72919;SHT30;68407;55.694;26.994;2023-10-08T13:51:21;5.8;81.2
72919;SHT30;68407;55.694;26.994;2023-10-08T13:55:57;5.8;80.9
72919;SHT30;68407;55.694;26.994;2023-10-08T14:01:19;5.8;79.2
72919;SHT30;68407;55.694;26.994;2023-10-08T14:05:39;5.9;77
72919;SHT30;68407;55.694;26.994;2023-10-08T14:10:31;5.8;77.4
72919;SHT30;68407;55.694;26.994;2023-10-08T14:15:41;5.8;76.9
72919;SHT30;68407;55.694;26.994;2023-10-08T14:20:37;5.7;76
72919;SHT30;68407;55.694;26.994;2023-10-08T14:25:47;5.7;74.4
72919;SHT30;68407;55.694;26.994;2023-10-08T14:30:39;5.7;74
72919;SHT30;68407;55.694;26.994;2023-10-08T14:36:22;5.7;73.8
72919;SHT30;68407;55.694;26.994;2023-10-08T14:41:19;5.7;73.7
72919;SHT30;68407;55.694;26.994;2023-10-08T14:45:59;5.6;73.9
72919;SHT30;68407;55.694;26.994;2023-10-08T14:51:21;5.5;74.2
72919;SHT30;68407;55.694;26.994;2023-10-08T14:56:13;5.4;74.7
72919;SHT30;68407;55.694;26.994;2023-10-08T15:01:21;5.3;74.8
72919;SHT30;68407;55.694;26.994;2023-10-08T15:06:15;5.2;74.9
72919;SHT30;68407;55.694;26.994;2023-10-08T15:10:37;5.2;74.8
72919;SHT30;68407;55.694;26.994;2023-10-08T15:15:33;5.2;74.7
72919;SHT30;68407;55.694;26.994;2023-10-08T15:20:51;5.1;74.3
72919;SHT30;68407;55.694;26.994;2023-10-08T15:26:21;5.1;73.3
72919;SHT30;68407;55.694;26.994;2023-10-08T15:31:21;5.2;72.7
72919;SHT30;68407;55.694;26.994;2023-10-08T15:36:13;5.1;72.9
72919;SHT30;68407;55.694;26.994;2023-10-08T15:40:33;5.1;72.8
72919;SHT30;68407;55.694;26.994;2023-10-08T15:45:33;5;72.6
72919;SHT30;68407;55.694;26.994;2023-10-08T15:50:33;5;72.7
72919;SHT30;68407;55.694;26.994;2023-10-08T15:56:21;5;72.6
72919;SHT30;68407;55.694;26.994;2023-10-08T16:00:49;5.1;72.2
72919;SHT30;68407;55.694;26.994;2023-10-08T16:05:39;5;72.3
72919;SHT30;68407;55.694;26.994;2023-10-08T16:10:59;5.1;72.3
72919;SHT30;68407;55.694;26.994;2023-10-08T16:15:33;5.1;72.2
72919;SHT30;68407;55.694;26.994;2023-10-08T16:21:21;5.2;72.3
72919;SHT30;68407;55.694;26.994;2023-10-08T16:26:11;5.3;72.2
72919;SHT30;68407;55.694;26.994;2023-10-08T16:30:33;5.4;72.5
72919;SHT30;68407;55.694;26.994;2023-10-08T16:35:39;5.4;73.3
72919;SHT30;68407;55.694;26.994;2023-10-08T16:40:45;5.3;74.1
72919;SHT30;68407;55.694;26.994;2023-10-08T16:46:19;5.3;75.1
72919;SHT30;68407;55.694;26.994;2023-10-08T16:50:49;5.3;75.8
72919;SHT30;68407;55.694;26.994;2023-10-08T16:55:45;5.3;75.7
72919;SHT30;68407;55.694;26.994;2023-10-08T17:00:59;5.3;75.7
72919;SHT30;68407;55.694;26.994;2023-10-08T17:06:19;5.3;76
72919;SHT30;68407;55.694;26.994;2023-10-08T17:11:21;5.3;76.8
72919;SHT30;68407;55.694;26.994;2023-10-08T17:16:01;5.3;77.4
72919;SHT30;68407;55.694;26.994;2023-10-08T17:20:33;5.3;77.9
72919;SHT30;68407;55.694;26.994;2023-10-08T17:25:33;5.2;78.5
72919;SHT30;68407;55.694;26.994;2023-10-08T17:30:33;5.2;78.5
72919;SHT30;68407;55.694;26.994;2023-10-08T17:36:19;5.2;78.2
72919;SHT30;68407;55.694;26.994;2023-10-08T17:40:33;5.2;78
72919;SHT30;68407;55.694;26.994;2023-10-08T17:45:33;5.2;77.7
72919;SHT30;68407;55.694;26.994;2023-10-08T17:50:57;5.1;76.8
72919;SHT30;68407;55.694;26.994;2023-10-08T17:55:41;5.1;76.7
72919;SHT30;68407;55.694;26.994;2023-10-08T18:01:19;5;76.9
72919;SHT30;68407;55.694;26.994;2023-10-08T18:06:19;4.9;77.3
72919;SHT30;68407;55.694;26.994;2023-10-08T18:11:21;4.9;77.2
72919;SHT30;68407;55.694;26.994;2023-10-08T18:15:39;4.8;77.1
72919;SHT30;68407;55.694;26.994;2023-10-08T18:20:33;4.7;77.1
72919;SHT30;68407;55.694;26.994;2023-10-08T18:26:21;4.7;76.9
72919;SHT30;68407;55.694;26.994;2023-10-08T18:31:13;4.6;76.8
72919;SHT30;68407;55.694;26.994;2023-10-08T18:35:45;4.6;76.7
72919;SHT30;68407;55.694;26.994;2023-10-08T18:40:59;4.5;76.5
72919;SHT30;68407;55.694;26.994;2023-10-08T18:46:07;4.6;75.8
72919;SHT30;68407;55.694;26.994;2023-10-08T18:51:21;4.5;75.6
72919;SHT30;68407;55.694;26.994;2023-10-08T18:56:13;4.5;75.7
72919;SHT30;68407;55.694;26.994;2023-10-08T19:00:33;4.4;75.6
72919;SHT30;68407;55.694;26.994;2023-10-08T19:05:39;4.4;75.4
72919;SHT30;68407;55.694;26.994;2023-10-08T19:10:33;4.4;75.4
72919;SHT30;68407;55.694;26.994;2023-10-08T19:16:19;4.3;75.4
72919;SHT30;68407;55.694;26.994;2023-10-08T19:20:49;4.3;75.7
72919;SHT30;68407;55.694;26.994;2023-10-08T19:25:46;4.3;75.7
72919;SHT30;68407;55.694;26.994;2023-10-08T19:30:57;4.3;75.6
72919;SHT30;68407;55.694;26.994;2023-10-08T19:35:55;4.3;75.6
72919;SHT30;68407;55.694;26.994;2023-10-08T19:41:21;4.3;75.6
72919;SHT30;68407;55.694;26.994;2023-10-08T19:46:11;4.3;75.7
72919;SHT30;68407;55.694;26.994;2023-10-08T19:50:33;4.3;75.6
72919;SHT30;68407;55.694;26.994;2023-10-08T19:55:53;4.2;75.8
72919;SHT30;68407;55.694;26.994;2023-10-08T20:00:33;4.2;76
72919;SHT30;68407;55.694;26.994;2023-10-08T20:06:21;4.2;76
72919;SHT30;68407;55.694;26.994;2023-10-08T20:10:51;4.2;76.2
72919;SHT30;68407;55.694;26.994;2023-10-08T20:15:33;4.2;76.3
72919;SHT30;68407;55.694;26.994;2023-10-08T20:21:21;4.1;76.6
72919;SHT30;68407;55.694;26.994;2023-10-08T20:26:14;4.1;76.7
72919;SHT30;68407;55.694;26.994;2023-10-08T20:31:21;4.1;76.7
72919;SHT30;68407;55.694;26.994;2023-10-08T20:36:13;4;77
72919;SHT30;68407;55.694;26.994;2023-10-08T20:40:33;4;77
72919;SHT30;68407;55.694;26.994;2023-10-08T20:45:35;4;77.3
72919;SHT30;68407;55.694;26.994;2023-10-08T20:50:43;4;77.2
72919;SHT30;68407;55.694;26.994;2023-10-08T20:56:19;4.1;77.2
72919;SHT30;68407;55.694;26.994;2023-10-08T21:00:39;4;77.4
72919;SHT30;68407;55.694;26.994;2023-10-08T21:05:40;4;77.5
72919;SHT30;68407;55.694;26.994;2023-10-08T21:10:59;4;77.7
72919;SHT30;68407;55.694;26.994;2023-10-08T21:16:13;4;77.8
72919;SHT30;68407;55.694;26.994;2023-10-08T21:21:21;4;77.9
72919;SHT30;68407;55.694;26.994;2023-10-08T21:26:16;3.9;78.2
72919;SHT30;68407;55.694;26.994;2023-10-08T21:30:33;3.9;78.3
72919;SHT30;68407;55.694;26.994;2023-10-08T21:35:33;3.9;78.4
72919;SHT30;68407;55.694;26.994;2023-10-08T21:41:13;3.9;78.6
72919;SHT30;68407;55.694;26.994;2023-10-08T21:46:21;3.8;78.6
72919;SHT30;68407;55.694;26.994;2023-10-08T21:50:33;3.9;78.7
72919;SHT30;68407;55.694;26.994;2023-10-08T21:55:33;3.8;78.9
72919;SHT30;68407;55.694;26.994;2023-10-08T22:00:59;3.8;78.9
72919;SHT30;68407;55.694;26.994;2023-10-08T22:06:13;3.8;79
72919;SHT30;68407;55.694;26.994;2023-10-08T22:11:21;3.8;79.1
72919;SHT30;68407;55.694;26.994;2023-10-08T22:15:41;3.8;79.2
72919;SHT30;68407;55.694;26.994;2023-10-08T22:20:33;3.8;79.4
72919;SHT30;68407;55.694;26.994;2023-10-08T22:25:39;3.7;79.5
72919;SHT30;68407;55.694;26.994;2023-10-08T22:30:51;3.6;79.7
72919;SHT30;68407;55.694;26.994;2023-10-08T22:36:21;3.6;79.8
72919;SHT30;68407;55.694;26.994;2023-10-08T22:40:51;3.5;80
72919;SHT30;68407;55.694;26.994;2023-10-08T22:45:47;3.5;80.4
72919;SHT30;68407;55.694;26.994;2023-10-08T22:50:59;3.4;80.8
72919;SHT30;68407;55.694;26.994;2023-10-08T22:56:13;3.3;81.1
72919;SHT30;68407;55.694;26.994;2023-10-08T23:01:20;3.2;81.2
72919;SHT30;68407;55.694;26.994;2023-10-08T23:06:13;3.2;81.3
72919;SHT30;68407;55.694;26.994;2023-10-08T23:10:39;3.1;81.3
72919;SHT30;68407;55.694;26.994;2023-10-08T23:15:39;3.1;81.4
72919;SHT30;68407;55.694;26.994;2023-10-08T23:20:53;3;81.5
72919;SHT30;68407;55.694;26.994;2023-10-08T23:26:17;3;81.6
72919;SHT30;68407;55.694;26.994;2023-10-08T23:30:33;3;81.8
72919;SHT30;68407;55.694;26.994;2023-10-08T23:35:33;2.9;81.8
72919;SHT30;68407;55.694;26.994;2023-10-08T23:40:59;2.9;81.9
72919;SHT30;68407;55.694;26.994;2023-10-08T23:45:59;2.8;82
72919;SHT30;68407;55.694;26.994;2023-10-08T23:51:20;2.8;82
72919;SHT30;68407;55.694;26.994;2023-10-08T23:56:11;2.8;81.9
